Time;durP1;ratioP1;P1;durP2;ratioP2;P2;SDS_P1;SDS_P2;PMS_P1;PMS_P2;Temp;Humidity;BMP_temperature;BMP_pressure;BME280_temperature;BME280_humidity;BME280_pressure;Samples;Min_cycle;Max_cycle;Signal;HPM_P1;HPM_P2
2022/07/05 00:00:56;;;;;;;1.73;1.30;;;;;;;15.91;84.47;101332.22;5053147;28;20444;-66
2022/07/05 00:03:23;;;;;;;1.90;1.10;;;;;;;15.86;84.63;101341.38;5053443;28;20458;-66
2022/07/05 00:05:50;;;;;;;2.30;1.10;;;;;;;15.69;85.11;101344.06;5053493;28;20452;-66
2022/07/05 00:08:17;;;;;;;2.37;1.57;;;;;;;15.68;85.36;101347.94;5053141;28;20449;-64
2022/07/05 00:10:44;;;;;;;2.50;1.20;;;;;;;15.64;85.90;101341.47;5053128;28;20568;-65
2022/07/05 00:13:12;;;;;;;2.53;1.63;;;;;;;15.70;84.76;101342.13;5053011;28;20545;-65
2022/07/05 00:15:39;;;;;;;2.37;1.30;;;;;;;15.71;85.12;101343.75;5053060;28;20535;-65
2022/07/05 00:18:06;;;;;;;2.30;1.43;;;;;;;15.72;84.95;101340.72;5053067;28;20534;-66
2022/07/05 00:20:32;;;;;;;2.60;1.73;;;;;;;15.74;84.82;101346.66;5052678;28;20807;-65
2022/07/05 00:22:59;;;;;;;1.90;1.37;;;;;;;15.73;84.97;101350.50;5052720;28;20482;-65
2022/07/05 00:25:26;;;;;;;4.90;1.40;;;;;;;15.67;84.83;101346.31;5052750;28;20933;-65
2022/07/05 00:27:53;;;;;;;4.20;1.90;;;;;;;15.70;84.09;101356.59;5052994;28;20489;-65
2022/07/05 00:30:21;;;;;;;2.03;1.50;;;;;;;15.64;84.59;101363.34;5052650;28;20999;-65
2022/07/05 00:32:48;;;;;;;2.90;1.97;;;;;;;15.63;85.11;101358.97;5053003;28;20448;-65
2022/07/05 00:35:14;;;;;;;1.83;1.60;;;;;;;15.57;85.82;101362.94;5052924;28;20442;-66
2022/07/05 00:37:41;;;;;;;2.33;1.87;;;;;;;15.50;86.39;101373.53;5053009;28;20456;-66
2022/07/05 00:40:09;;;;;;;2.67;1.63;;;;;;;15.45;86.69;101365.44;5052881;28;20528;-65
2022/07/05 00:42:35;;;;;;;1.60;1.23;;;;;;;15.43;86.13;101365.78;5052924;28;20453;-66
2022/07/05 00:45:04;;;;;;;2.20;1.33;;;;;;;15.38;86.83;101368.66;5052821;28;20456;-68
2022/07/05 00:47:32;;;;;;;2.33;1.33;;;;;;;15.49;86.19;101374.63;5052502;28;20525;-68
2022/07/05 00:49:58;;;;;;;2.20;1.70;;;;;;;15.45;86.25;101376.38;5052765;28;20488;-68
2022/07/05 00:52:25;;;;;;;1.30;1.10;;;;;;;15.46;86.22;101375.28;5053779;28;20449;-72
2022/07/05 00:54:52;;;;;;;1.00;0.70;;;;;;;15.39;87.10;101378.44;5052570;28;20541;-72
2022/07/05 00:57:20;;;;;;;1.60;1.20;;;;;;;15.38;86.82;101380.38;5052468;28;20943;-69
2022/07/05 00:59:47;;;;;;;1.73;1.20;;;;;;;15.29;87.33;101384.19;5052487;28;21058;-69
2022/07/05 01:02:14;;;;;;;3.20;1.30;;;;;;;15.24;87.37;101381.59;5053061;28;20521;-69
2022/07/05 01:04:42;;;;;;;6.10;2.20;;;;;;;15.32;87.57;101389.03;5053388;28;20545;-69
2022/07/05 01:07:09;;;;;;;2.20;1.63;;;;;;;15.31;87.57;101384.66;5056490;28;20529;-69
2022/07/05 01:09:36;;;;;;;2.07;1.47;;;;;;;15.32;87.76;101383.56;5056448;28;20569;-69
2022/07/05 01:12:02;;;;;;;3.97;1.60;;;;;;;15.25;88.28;101381.25;5056396;28;20441;-69
2022/07/05 01:14:30;;;;;;;2.00;1.77;;;;;;;15.27;88.21;101381.78;5056236;28;20557;-69
2022/07/05 01:16:56;;;;;;;3.80;1.30;;;;;;;15.20;88.53;101372.41;5056423;28;20452;-70
2022/07/05 01:19:23;;;;;;;2.20;1.40;;;;;;;15.09;89.06;101369.94;5055902;28;20442;-69
2022/07/05 01:21:52;;;;;;;3.13;1.57;;;;;;;15.13;88.16;101384.56;5056235;28;20525;-70
2022/07/05 01:24:21;;;;;;;1.53;1.30;;;;;;;15.02;88.24;101385.94;5055801;28;21033;-70
2022/07/05 01:26:50;;;;;;;1.67;1.13;;;;;;;14.95;88.88;101376.59;5056218;28;20823;-70
2022/07/05 01:29:17;;;;;;;1.40;1.10;;;;;;;14.93;89.64;101378.84;5055725;28;20522;-70
2022/07/05 01:31:44;;;;;;;2.80;1.80;;;;;;;14.95;89.51;101382.84;5056116;28;20537;-72
2022/07/05 01:34:11;;;;;;;1.40;1.30;;;;;;;14.93;89.91;101384.28;5055934;28;20519;-70
2022/07/05 01:36:39;;;;;;;1.90;1.13;;;;;;;14.86;90.13;101382.78;5055947;28;20442;-70
2022/07/05 01:39:07;;;;;;;2.23;1.67;;;;;;;14.89;89.96;101387.63;5055963;28;20525;-69
2022/07/05 01:41:36;;;;;;;1.47;1.20;;;;;;;14.94;89.58;101383.16;5055942;28;20512;-69
2022/07/05 01:44:04;;;;;;;1.87;1.30;;;;;;;14.92;89.02;101396.28;5055458;28;20548;-70
2022/07/05 01:46:36;;;;;;;3.97;1.80;;;;;;;14.88;89.56;101388.75;5055479;28;20451;-70
2022/07/05 01:49:06;;;;;;;2.57;1.70;;;;;;;14.98;89.40;101384.16;5055721;28;20482;-70
2022/07/05 01:51:35;;;;;;;1.63;1.27;;;;;;;14.95;89.28;101382.03;5055733;28;20505;-70
2022/07/05 01:54:02;;;;;;;1.73;1.30;;;;;;;14.94;88.94;101386.69;5055580;28;20466;-69
2022/07/05 01:56:29;;;;;;;2.77;1.70;;;;;;;14.88;88.60;101388.75;5055281;28;20971;-65
2022/07/05 01:58:58;;;;;;;2.10;1.80;;;;;;;14.79;88.95;101379.69;5055431;28;20537;-67
2022/07/05 02:01:35;;;;;;;1.87;1.40;;;;;;;14.75;88.93;101381.44;5055016;28;20798;-67
2022/07/05 02:04:02;;;;;;;2.27;1.40;;;;;;;14.74;89.13;101374.38;5055316;28;20462;-70
2022/07/05 02:06:29;;;;;;;1.97;1.40;;;;;;;14.72;89.77;101382.03;5055153;28;20615;-68
2022/07/05 02:08:55;;;;;;;2.43;1.70;;;;;;;14.78;89.19;101377.25;5054938;28;20802;-69
2022/07/05 02:11:22;;;;;;;2.50;1.37;;;;;;;14.77;88.94;101381.13;5055305;28;20482;-68
2022/07/05 02:13:48;;;;;;;1.57;1.30;;;;;;;14.71;89.23;101385.88;5055090;28;20892;-69
2022/07/05 02:16:16;;;;;;;2.47;1.30;;;;;;;14.81;88.08;101382.09;5055000;28;20442;-69
2022/07/05 02:18:43;;;;;;;2.00;1.63;;;;;;;14.79;88.03;101379.69;5055113;28;20545;-68
2022/07/05 02:21:10;;;;;;;2.40;1.53;;;;;;;14.79;87.61;101396.06;5054819;28;20533;-69
2022/07/05 02:23:36;;;;;;;2.73;1.60;;;;;;;14.77;87.17;101384.66;5054483;28;20996;-69
2022/07/05 02:26:03;;;;;;;4.00;1.93;;;;;;;14.74;87.41;101385.28;5054952;28;20442;-68
2022/07/05 02:28:30;;;;;;;2.47;1.70;;;;;;;14.63;89.37;101381.16;5054533;28;20944;-69
2022/07/05 02:30:56;;;;;;;1.97;1.53;;;;;;;14.66;89.24;101377.03;5054757;28;20486;-69
2022/07/05 02:33:24;;;;;;;2.30;1.90;;;;;;;14.77;88.55;101384.66;5054718;28;20537;-68
2022/07/05 02:35:51;;;;;;;1.47;1.37;;;;;;;14.66;88.83;101391.47;5054718;28;20448;-67
2022/07/05 02:38:18;;;;;;;2.17;1.67;;;;;;;14.66;88.99;101390.66;5054768;28;20442;-71
2022/07/05 02:40:44;;;;;;;2.67;2.23;;;;;;;14.50;89.74;101399.19;5054889;28;20529;-71
2022/07/05 02:43:11;;;;;;;2.93;2.13;;;;;;;14.52;89.59;101398.88;5054880;28;20472;-71
2022/07/05 02:45:37;;;;;;;2.07;1.57;;;;;;;14.58;89.12;101393.00;5054249;28;20537;-71
2022/07/05 02:48:04;;;;;;;2.50;1.67;;;;;;;14.58;89.10;101398.47;5054780;28;20538;-72
2022/07/05 02:50:32;;;;;;;2.00;1.77;;;;;;;14.55;88.94;101404.50;5054574;28;20482;-72
2022/07/05 02:52:59;;;;;;;2.93;1.93;;;;;;;14.43;88.97;101403.41;5054589;28;20553;-72
2022/07/05 02:55:26;;;;;;;2.27;1.30;;;;;;;14.46;88.53;101398.16;5054456;28;20478;-71
2022/07/05 02:57:52;;;;;;;2.30;1.47;;;;;;;14.36;89.94;101399.19;5054627;28;20447;-72
2022/07/05 03:00:19;;;;;;;3.73;1.33;;;;;;;14.32;90.39;101400.91;5054386;28;20593;-72
2022/07/05 03:02:45;;;;;;;2.20;1.67;;;;;;;14.28;90.12;101404.56;5054062;28;20537;-72
2022/07/05 03:05:12;;;;;;;1.83;1.50;;;;;;;14.33;89.98;101399.00;5054378;28;20473;-72
2022/07/05 03:07:40;;;;;;;3.70;1.63;;;;;;;14.37;89.63;101403.53;5054279;28;20470;-72
2022/07/05 03:10:07;;;;;;;3.90;1.80;;;;;;;14.41;88.66;101408.38;5054206;28;20593;-71
2022/07/05 03:12:34;;;;;;;2.93;1.77;;;;;;;14.28;87.26;101410.81;5054305;28;20464;-72
2022/07/05 03:15:00;;;;;;;2.67;1.53;;;;;;;14.13;86.66;101411.16;5054010;28;20474;-71
2022/07/05 03:17:27;;;;;;;1.47;1.33;;;;;;;14.12;86.35;101410.34;5054124;28;20881;-70
2022/07/05 03:19:53;;;;;;;1.70;1.43;;;;;;;14.16;86.33;101424.13;5054100;28;20538;-71
2022/07/05 03:22:20;;;;;;;1.30;1.20;;;;;;;14.07;87.72;101415.06;5053804;28;20478;-72
2022/07/05 03:24:48;;;;;;;1.90;1.40;;;;;;;13.93;89.58;101420.53;5053966;28;20470;-72
2022/07/05 03:27:14;;;;;;;2.60;1.90;;;;;;;13.86;91.85;101411.97;5053503;28;20525;-72
2022/07/05 03:29:41;;;;;;;1.63;1.30;;;;;;;14.03;90.72;101416.78;5053822;28;20525;-72
2022/07/05 03:32:08;;;;;;;6.77;2.17;;;;;;;14.10;91.09;101415.28;5053874;28;20935;-73
2022/07/05 03:34:34;;;;;;;2.70;2.00;;;;;;;14.18;91.09;101416.47;5053811;28;20488;-73
2022/07/05 03:37:01;;;;;;;4.27;2.20;;;;;;;14.23;91.00;101419.09;5053696;28;20521;-74
2022/07/05 03:39:27;;;;;;;2.77;1.97;;;;;;;14.17;91.84;101408.63;5053554;28;20456;-73
2022/07/05 03:41:55;;;;;;;2.17;1.47;;;;;;;14.27;90.92;101409.19;5053531;28;20533;-73
2022/07/05 03:44:22;;;;;;;3.73;2.13;;;;;;;14.30;90.66;101416.78;5053555;28;20545;-73
2022/07/05 03:46:49;;;;;;;5.00;2.00;;;;;;;14.29;91.12;101423.31;5053597;28;20474;-73
2022/07/05 03:49:15;;;;;;;2.67;2.07;;;;;;;14.31;91.75;101426.56;5053700;28;20517;-72
2022/07/05 03:51:42;;;;;;;3.33;2.00;;;;;;;14.27;92.14;101422.03;5053877;28;20482;-73
2022/07/05 03:54:08;;;;;;;2.07;1.60;;;;;;;14.36;91.90;101423.72;5053225;28;20493;-73
2022/07/05 03:56:35;;;;;;;2.50;1.80;;;;;;;14.42;92.79;101426.34;5053277;28;21034;-72
2022/07/05 03:59:03;;;;;;;2.90;1.73;;;;;;;14.57;92.42;101431.50;5053657;28;20533;-73
2022/07/05 04:01:30;;;;;;;1.43;1.20;;;;;;;14.64;92.42;101429.94;5053437;28;20469;-73
2022/07/05 04:03:56;;;;;;;2.80;2.10;;;;;;;14.56;93.71;101427.94;5053016;28;20549;-74
2022/07/05 04:06:23;;;;;;;1.97;1.50;;;;;;;14.66;93.26;101428.84;5053393;28;20517;-72
2022/07/05 04:08:49;;;;;;;3.60;2.30;;;;;;;14.75;93.36;101427.78;5053344;28;20474;-73
2022/07/05 04:11:16;;;;;;;3.73;2.00;;;;;;;14.74;91.70;101428.09;5053177;28;21086;-72
2022/07/05 04:13:43;;;;;;;2.40;1.90;;;;;;;14.76;90.25;101431.31;5053403;28;20546;-72
2022/07/05 04:16:11;;;;;;;2.07;1.60;;;;;;;14.81;88.33;101434.75;5053338;28;20442;-71
2022/07/05 04:18:38;;;;;;;4.50;1.77;;;;;;;14.87;87.97;101436.25;5053507;28;20534;-72
2022/07/05 04:21:05;;;;;;;1.90;1.57;;;;;;;14.91;87.93;101441.06;5052978;28;20441;-72
2022/07/05 04:23:32;;;;;;;2.10;1.53;;;;;;;15.00;89.67;101439.22;5053115;28;20576;-72
2022/07/05 04:26:01;;;;;;;2.63;1.77;;;;;;;15.02;90.63;101442.44;5090903;22;21089;-69
2022/07/05 04:28:29;;;;;;;2.50;1.80;;;;;;;15.04;90.94;101448.38;5072643;28;20532;-69
2022/07/05 04:30:56;;;;;;;2.73;1.70;;;;;;;15.11;91.61;101454.22;5072729;28;20512;-69
2022/07/05 04:33:25;;;;;;;2.40;1.40;;;;;;;15.15;92.04;101455.22;5072951;28;20441;-69
2022/07/05 04:35:51;;;;;;;2.33;1.80;;;;;;;15.27;91.99;101458.22;5072803;28;20549;-69
2022/07/05 04:38:18;;;;;;;2.40;1.93;;;;;;;15.41;92.15;101455.41;5073181;28;20544;-69
2022/07/05 04:40:44;;;;;;;3.20;2.27;;;;;;;15.53;91.90;101461.06;5076794;28;20437;-69
2022/07/05 04:43:11;;;;;;;2.57;1.80;;;;;;;15.58;91.72;101469.16;5076439;28;20448;-69
2022/07/05 04:45:38;;;;;;;1.90;1.70;;;;;;;15.75;91.18;101467.63;5076313;28;20472;-69
2022/07/05 04:48:05;;;;;;;2.07;1.70;;;;;;;15.91;91.66;101476.25;5076636;28;20445;-70
2022/07/05 04:50:33;;;;;;;3.07;2.20;;;;;;;15.96;91.53;101470.63;5076520;28;20516;-69
2022/07/05 04:52:59;;;;;;;1.60;1.20;;;;;;;16.08;90.49;101487.25;5076414;28;20476;-69
2022/07/05 04:55:26;;;;;;;3.07;1.50;;;;;;;16.17;90.03;101490.81;5076426;28;20471;-69
2022/07/05 04:57:53;;;;;;;2.20;1.30;;;;;;;16.27;89.33;101490.53;5076107;28;20447;-70
2022/07/05 05:00:19;;;;;;;2.17;1.80;;;;;;;16.34;89.41;101490.88;5076105;28;21002;-69
2022/07/05 05:02:46;;;;;;;1.97;1.77;;;;;;;16.42;89.75;101491.19;5076380;28;20477;-69
2022/07/05 05:05:12;;;;;;;4.63;1.47;;;;;;;16.49;89.42;101502.47;5076247;28;20526;-69
2022/07/05 05:07:44;;;;;;;1.90;1.50;;;;;;;16.58;89.28;101506.84;5076182;28;20902;-70
2022/07/05 05:10:11;;;;;;;2.13;1.70;;;;;;;16.67;90.11;101512.34;5076269;28;20418;-69
2022/07/05 05:12:38;;;;;;;2.10;1.43;;;;;;;16.78;90.46;101510.94;5076099;28;20571;-69
2022/07/05 05:15:08;;;;;;;1.83;1.40;;;;;;;16.84;89.12;101509.66;5076010;28;20547;-70
2022/07/05 05:17:36;;;;;;;3.37;2.00;;;;;;;16.93;87.53;101506.13;5076020;28;20441;-69
2022/07/05 05:20:02;;;;;;;1.90;1.67;;;;;;;17.00;85.78;101509.16;5076008;28;20449;-69
2022/07/05 05:22:29;;;;;;;1.30;1.10;;;;;;;17.09;85.57;101510.00;5075955;28;20616;-69
2022/07/05 05:24:57;;;;;;;1.57;1.40;;;;;;;17.15;84.66;101511.44;5075620;28;21061;-69
2022/07/05 05:27:23;;;;;;;1.63;1.13;;;;;;;17.17;83.33;101509.16;5075922;28;20512;-69
2022/07/05 05:29:50;;;;;;;1.23;0.90;;;;;;;17.24;81.91;101501.28;5075783;28;20532;-69
2022/07/05 05:32:17;;;;;;;1.17;1.00;;;;;;;17.35;82.87;101499.00;5076007;28;20512;-69
2022/07/05 05:34:43;;;;;;;1.10;1.00;;;;;;;17.38;81.69;101509.31;5075337;28;21012;-69
2022/07/05 05:37:10;;;;;;;1.77;1.17;;;;;;;17.47;80.47;101501.88;5075676;28;20445;-69
2022/07/05 05:39:36;;;;;;;0.90;0.73;;;;;;;17.55;79.92;101503.81;5075352;28;21010;-69
2022/07/05 05:42:06;;;;;;;1.40;1.03;;;;;;;17.55;78.25;101508.50;5075605;28;20523;-68
2022/07/05 05:44:32;;;;;;;2.30;1.03;;;;;;;17.60;77.97;101513.78;5075504;28;20441;-69
2022/07/05 05:46:59;;;;;;;1.30;0.90;;;;;;;17.74;76.53;101514.44;5075258;28;20600;-69
2022/07/05 05:49:26;;;;;;;1.77;1.10;;;;;;;17.86;76.83;101511.81;5075436;28;20473;-69
2022/07/05 05:51:52;;;;;;;2.60;0.67;;;;;;;17.99;77.42;101515.50;5074713;28;20920;-69
2022/07/05 05:54:19;;;;;;;1.70;1.30;;;;;;;18.08;77.78;101512.72;5075414;28;20524;-69
2022/07/05 05:56:45;;;;;;;1.40;0.80;;;;;;;18.13;75.24;101523.50;5075306;28;20548;-69
2022/07/05 05:59:13;;;;;;;1.33;0.80;;;;;;;18.24;74.47;101527.50;5075000;28;20477;-69
2022/07/05 06:01:40;;;;;;;1.07;0.90;;;;;;;18.29;72.85;101523.75;5074965;28;20477;-74
2022/07/05 06:04:06;;;;;;;1.20;0.77;;;;;;;18.34;76.25;101526.31;5075261;28;20521;-75
2022/07/05 06:06:33;;;;;;;1.53;0.97;;;;;;;18.31;71.56;101536.00;5075178;28;20540;-70
2022/07/05 06:09:00;;;;;;;1.20;1.10;;;;;;;18.39;70.43;101537.91;5075089;28;20532;-70
2022/07/05 06:11:27;;;;;;;1.23;0.90;;;;;;;18.50;71.04;101535.56;5075008;28;20481;-71
2022/07/05 06:13:54;;;;;;;1.30;0.87;;;;;;;18.62;71.20;101538.41;5074752;28;20888;-70
2022/07/05 06:16:22;;;;;;;1.17;0.83;;;;;;;18.70;71.00;101539.53;5074959;28;20465;-71
2022/07/05 06:18:48;;;;;;;1.30;0.90;;;;;;;18.79;68.82;101548.50;5074382;28;21038;-70
2022/07/05 06:21:15;;;;;;;1.23;0.70;;;;;;;18.84;68.23;101553.81;5074821;28;20808;-70
2022/07/05 06:23:41;;;;;;;2.87;1.20;;;;;;;18.82;67.76;101547.84;5074582;28;20469;-71
2022/07/05 06:26:09;;;;;;;1.97;1.07;;;;;;;18.81;68.45;101554.47;5074353;28;20556;-71
2022/07/05 06:28:36;;;;;;;1.30;1.10;;;;;;;18.85;69.82;101551.84;5074763;28;20524;-71
2022/07/05 06:31:02;;;;;;;1.30;0.90;;;;;;;19.01;69.53;101549.34;5074321;28;21033;-71
2022/07/05 06:33:30;;;;;;;1.40;1.00;;;;;;;19.12;68.58;101556.03;5074393;28;20934;-70
2022/07/05 06:35:57;;;;;;;1.63;1.03;;;;;;;19.24;68.15;101556.09;5074559;28;20548;-70
2022/07/05 06:38:23;;;;;;;1.93;0.90;;;;;;;19.35;67.66;101557.31;5074573;28;20447;-70
2022/07/05 06:40:50;;;;;;;1.30;0.87;;;;;;;19.53;65.87;101559.91;5074206;28;20532;-70
2022/07/05 06:43:16;;;;;;;1.40;0.67;;;;;;;19.58;64.55;101563.22;5074456;28;20480;-70
2022/07/05 06:45:43;;;;;;;0.97;0.80;;;;;;;19.61;62.44;101568.09;5073973;28;21024;-70
2022/07/05 06:48:11;;;;;;;1.20;0.90;;;;;;;19.55;60.56;101566.66;5074358;28;20532;-70
2022/07/05 06:50:42;;;;;;;3.83;1.20;;;;;;;19.54;62.50;101567.78;5074035;28;20537;-70
2022/07/05 06:53:10;;;;;;;2.30;0.90;;;;;;;19.60;64.29;101560.13;5074134;28;20487;-70
2022/07/05 06:55:36;;;;;;;0.90;0.67;;;;;;;19.72;61.48;101568.47;5073843;28;20552;-70
2022/07/05 06:58:05;;;;;;;0.97;0.80;;;;;;;19.83;62.82;101563.31;5074196;28;20838;-70
2022/07/05 07:00:32;;;;;;;1.73;0.90;;;;;;;19.83;62.41;101568.81;5074180;28;20481;-70
2022/07/05 07:02:59;;;;;;;2.13;0.90;;;;;;;19.82;62.01;101573.50;5073149;28;20468;-70
2022/07/05 07:05:26;;;;;;;1.00;0.70;;;;;;;19.94;62.13;101571.97;5073937;28;20496;-70
2022/07/05 07:10:39;;;;;;;4.57;0.87;;;;;;;19.97;62.67;101572.09;5073750;28;20405;-70
2022/07/05 07:13:06;;;;;;;1.03;0.80;;;;;;;20.08;61.96;101569.69;5073828;28;20580;-71
2022/07/05 07:15:34;;;;;;;1.43;0.83;;;;;;;20.10;62.61;101575.66;5073965;28;20536;-70
2022/07/05 07:18:00;;;;;;;1.03;0.80;;;;;;;20.15;62.18;101572.69;5073460;28;20441;-71
2022/07/05 07:20:28;;;;;;;1.30;1.00;;;;;;;20.16;62.16;101564.09;5073940;28;20450;-70
2022/07/05 07:22:56;;;;;;;2.63;1.20;;;;;;;20.27;62.94;101574.63;5073636;28;20525;-70
2022/07/05 07:25:23;;;;;;;1.23;1.00;;;;;;;20.33;61.90;101565.81;5073315;28;20567;-70
2022/07/05 07:27:51;;;;;;;4.60;0.70;;;;;;;20.37;61.50;101576.94;5073343;28;20448;-70
2022/07/05 07:30:20;;;;;;;1.07;0.70;;;;;;;20.32;60.90;101568.91;5073294;28;20532;-71
2022/07/05 07:32:47;;;;;;;2.70;1.17;;;;;;;20.48;59.26;101571.81;5073484;28;20492;-71
2022/07/05 07:35:14;;;;;;;0.87;0.70;;;;;;;20.61;58.51;101574.22;5073160;28;21065;-71
2022/07/05 07:37:41;;;;;;;1.67;0.97;;;;;;;20.69;58.54;101569.75;5073588;28;20456;-71
2022/07/05 07:40:10;;;;;;;1.00;0.70;;;;;;;20.69;55.82;101566.19;5073156;28;20532;-72
2022/07/05 07:42:36;;;;;;;1.27;0.90;;;;;;;20.79;56.60;101566.50;5073431;28;20520;-71
2022/07/05 07:45:03;;;;;;;1.23;0.70;;;;;;;20.82;57.04;101565.81;5073327;28;20572;-71
2022/07/05 07:47:30;;;;;;;1.20;0.80;;;;;;;20.89;58.98;101571.56;5072991;28;20507;-72
2022/07/05 07:49:57;;;;;;;2.00;1.10;;;;;;;20.97;58.01;101580.03;5073317;28;20486;-70
2022/07/05 07:52:23;;;;;;;1.97;0.70;;;;;;;21.04;56.62;101572.78;5073248;28;20573;-71
2022/07/05 07:54:50;;;;;;;2.63;0.93;;;;;;;20.96;57.92;101572.91;5072913;28;20532;-72
2022/07/05 07:57:18;;;;;;;1.20;0.97;;;;;;;21.03;56.31;101576.69;5072934;28;21018;-71
2022/07/05 07:59:45;;;;;;;1.07;0.60;;;;;;;21.11;56.50;101572.97;5073297;28;20540;-72
2022/07/05 08:02:12;;;;;;;1.30;0.77;;;;;;;21.16;57.07;101563.66;5073139;28;20541;-71
2022/07/05 08:04:38;;;;;;;1.80;1.00;;;;;;;21.22;56.38;101572.50;5073145;28;20437;-72
2022/07/05 08:07:05;;;;;;;2.10;1.20;;;;;;;21.21;54.95;101571.72;5073152;28;20529;-72
2022/07/05 08:09:32;;;;;;;2.13;0.80;;;;;;;21.25;58.73;101578.13;5073123;28;20445;-72
2022/07/05 08:11:59;;;;;;;1.80;1.37;;;;;;;21.33;55.54;101577.19;5072786;28;21024;-71
2022/07/05 08:14:27;;;;;;;1.10;0.80;;;;;;;21.31;59.65;101574.00;5077153;28;20440;-71
2022/07/05 08:16:53;;;;;;;0.97;0.80;;;;;;;21.28;55.41;101569.16;5079752;28;20524;-72
2022/07/05 08:22:07;;;;;;;1.47;0.83;;;;;;;21.25;56.70;101564.34;5079596;28;20409;-71
2022/07/05 08:24:34;;;;;;;1.20;0.73;;;;;;;21.24;56.49;101565.47;5079146;28;20950;-71
2022/07/05 08:27:00;;;;;;;1.33;1.07;;;;;;;21.28;58.01;101571.09;5079641;28;20513;-72
2022/07/05 08:29:28;;;;;;;0.90;0.70;;;;;;;21.32;57.61;101561.03;5079645;28;20440;-72
2022/07/05 08:31:55;;;;;;;1.73;0.90;;;;;;;21.24;55.99;101571.00;5079612;28;20584;-71
2022/07/05 08:34:21;;;;;;;1.40;0.90;;;;;;;21.26;58.48;101554.94;5079592;28;20525;-70
2022/07/05 08:36:48;;;;;;;2.33;0.80;;;;;;;21.21;57.12;101560.69;5079511;28;20548;-72
2022/07/05 08:39:16;;;;;;;1.73;1.30;;;;;;;21.33;58.85;101557.91;5079470;28;20540;-72
2022/07/05 08:41:47;;;;;;;2.40;0.97;;;;;;;21.39;60.95;101564.78;5079480;28;20548;-71
2022/07/05 08:44:18;;;;;;;1.27;0.80;;;;;;;21.32;56.46;101561.81;5079526;28;20432;-72
2022/07/05 08:46:48;;;;;;;1.53;1.00;;;;;;;21.36;57.96;101562.72;5079433;28;20536;-72
2022/07/05 08:49:15;;;;;;;5.13;1.13;;;;;;;21.35;57.53;101560.31;5079146;28;20999;-72
2022/07/05 08:51:43;;;;;;;0.80;0.60;;;;;;;21.44;57.08;101562.94;5079035;28;20429;-72
2022/07/05 08:54:11;;;;;;;3.17;1.10;;;;;;;21.48;56.24;101563.84;5079397;28;20520;-72
2022/07/05 08:56:38;;;;;;;1.30;0.90;;;;;;;21.54;56.15;101565.19;5079345;28;20479;-72
2022/07/05 08:59:05;;;;;;;2.00;0.70;;;;;;;21.73;55.37;101559.78;5079358;28;20531;-72
2022/07/05 09:01:34;;;;;;;1.00;0.70;;;;;;;21.83;55.35;101564.00;5079261;28;20532;-72
2022/07/05 09:04:05;;;;;;;1.00;0.63;;;;;;;21.84;54.63;101565.59;5078967;28;20495;-71
2022/07/05 09:06:35;;;;;;;0.90;0.50;;;;;;;21.70;53.63;101555.00;5079204;28;20461;-72
2022/07/05 09:09:03;;;;;;;1.00;0.63;;;;;;;21.71;54.63;101553.84;5079308;28;20505;-72
2022/07/05 09:11:39;;;;;;;0.90;0.60;;;;;;;21.74;55.03;101555.91;5079271;28;20444;-72
2022/07/05 09:14:07;;;;;;;1.00;0.60;;;;;;;21.70;55.48;101555.00;5079262;28;20452;-72
2022/07/05 09:16:34;;;;;;;1.20;0.80;;;;;;;21.79;56.98;101547.34;5079389;28;20461;-72
2022/07/05 09:19:08;;;;;;;1.23;0.93;;;;;;;21.91;55.21;101555.56;5078925;28;20973;-72
2022/07/05 09:21:36;;;;;;;0.80;0.50;;;;;;;21.97;55.83;101558.06;5079327;28;20444;-72
2022/07/05 09:24:04;;;;;;;1.30;0.80;;;;;;;22.04;54.31;101558.22;5079111;28;20520;-72
2022/07/05 09:26:35;;;;;;;2.13;0.93;;;;;;;22.12;55.83;101554.53;5074988;28;20487;-71
2022/07/05 09:29:02;;;;;;;1.23;0.77;;;;;;;22.24;55.20;101551.69;5075890;28;20473;-72
2022/07/05 09:31:31;;;;;;;1.10;0.60;;;;;;;22.36;54.72;101559.88;5075851;28;20449;-72
2022/07/05 09:34:06;;;;;;;1.47;0.80;;;;;;;22.42;53.98;101547.38;5075802;28;20589;-72
2022/07/05 09:36:50;;;;;;;1.07;0.60;;;;;;;22.48;55.78;101550.66;5075488;28;20985;-72
2022/07/05 09:39:18;;;;;;;3.23;1.00;;;;;;;22.53;57.90;101550.38;5075560;28;20457;-71
2022/07/05 09:41:44;;;;;;;1.43;0.80;;;;;;;22.56;53.69;101551.63;5075310;28;20897;-71
2022/07/05 09:44:11;;;;;;;1.20;0.80;;;;;;;22.67;53.61;101539.69;5075690;28;20528;-72
2022/07/05 09:46:38;;;;;;;1.30;0.83;;;;;;;22.77;52.22;101546.59;5075451;28;20548;-72
2022/07/05 09:49:05;;;;;;;0.80;0.60;;;;;;;22.80;53.03;101545.91;5075524;28;20521;-72
2022/07/05 09:51:49;;;;;;;1.97;1.20;;;;;;;22.83;52.08;101555.41;5075432;28;20524;-72
2022/07/05 09:54:16;;;;;;;1.50;0.90;;;;;;;22.88;54.23;101555.13;5075188;28;20778;-72
2022/07/05 09:56:47;;;;;;;7.23;0.90;;;;;;;22.84;52.31;101544.03;5075330;28;20492;-72
2022/07/05 09:59:19;;;;;;;1.60;0.87;;;;;;;23.06;52.52;101552.78;5075392;28;20441;-72
2022/07/05 10:01:46;;;;;;;1.03;0.70;;;;;;;23.14;50.95;101543.47;5075068;28;20425;-72
2022/07/05 10:04:13;;;;;;;2.10;1.20;;;;;;;23.09;51.93;101543.78;5075257;28;20441;-72
2022/07/05 10:06:40;;;;;;;1.23;0.73;;;;;;;23.12;50.83;101551.34;5075219;28;20461;-72
2022/07/05 10:09:09;;;;;;;1.77;1.17;;;;;;;23.22;50.90;101550.75;5075172;28;20441;-72
2022/07/05 10:11:39;;;;;;;1.83;1.30;;;;;;;23.36;50.95;101556.56;5074862;28;20532;-74
2022/07/05 10:14:12;;;;;;;3.30;1.00;;;;;;;23.42;49.01;101552.34;5074677;28;20481;-73
2022/07/05 10:16:39;;;;;;;3.80;1.03;;;;;;;23.59;50.30;101550.28;5074179;28;20816;-74
2022/07/05 10:19:11;;;;;;;1.83;0.90;;;;;;;23.66;49.38;101553.22;5074361;28;20627;-73
2022/07/05 10:21:38;;;;;;;2.20;1.47;;;;;;;23.72;49.23;101546.22;5074199;28;20430;-74
2022/07/05 10:24:05;;;;;;;1.70;1.13;;;;;;;23.80;49.05;101550.72;5073820;28;20989;-74
2022/07/05 10:26:33;;;;;;;4.13;0.80;;;;;;;23.87;49.02;101547.28;5073826;28;20998;-74
2022/07/05 10:29:01;;;;;;;4.07;1.30;;;;;;;23.87;47.70;101550.84;5074338;28;20533;-73
2022/07/05 10:31:29;;;;;;;1.17;0.67;;;;;;;23.86;48.02;101548.44;5074466;28;20632;-73
2022/07/05 10:33:56;;;;;;;1.20;0.93;;;;;;;23.76;48.08;101544.31;5074034;28;20485;-74
2022/07/05 10:36:24;;;;;;;1.10;0.80;;;;;;;23.72;48.75;101556.47;5073800;28;20860;-73
2022/07/05 10:38:51;;;;;;;1.50;0.83;;;;;;;23.54;49.12;101550.59;5074171;28;20536;-74
2022/07/05 10:41:22;;;;;;;0.80;0.60;;;;;;;23.39;50.69;101553.09;5074266;28;20537;-74
2022/07/05 10:43:55;;;;;;;1.57;0.80;;;;;;;23.34;49.48;101558.91;5073982;28;20512;-73
2022/07/05 10:46:34;;;;;;;1.40;0.97;;;;;;;23.25;49.14;101558.34;5073726;28;20461;-73
2022/07/05 10:49:11;;;;;;;2.43;1.10;;;;;;;23.30;50.76;101546.19;5074016;28;20500;-74
2022/07/05 10:51:37;;;;;;;1.10;0.83;;;;;;;23.36;50.16;101551.03;5074020;28;20461;-73
2022/07/05 10:54:04;;;;;;;1.43;0.90;;;;;;;23.37;49.17;101552.66;5073694;28;20572;-72
2022/07/05 10:56:31;;;;;;;2.17;1.10;;;;;;;23.25;48.44;101541.75;5073327;28;20849;-75
2022/07/05 10:59:11;;;;;;;1.60;1.00;;;;;;;23.26;49.54;101556.38;5073625;28;20480;-75
2022/07/05 11:01:39;;;;;;;3.30;1.10;;;;;;;23.37;49.95;101547.13;5073414;28;20471;-74
2022/07/05 11:04:19;;;;;;;1.60;0.97;;;;;;;23.43;48.93;101547.63;5073669;28;20472;-73
2022/07/05 11:06:49;;;;;;;1.00;0.80;;;;;;;23.29;50.51;101539.84;5073424;28;20460;-74
2022/07/05 11:09:17;;;;;;;1.47;1.17;;;;;;;23.52;49.75;101530.81;5073439;28;20445;-75
2022/07/05 11:11:46;;;;;;;1.27;0.77;;;;;;;23.84;48.17;101532.22;5073498;28;20441;-75
2022/07/05 11:14:37;;;;;;;1.10;0.77;;;;;;;24.21;47.79;101531.63;5073358;28;20489;-71
2022/07/05 11:17:26;;;;;;;1.33;1.00;;;;;;;24.51;48.37;101526.19;5073381;28;20434;-72
2022/07/05 11:20:05;;;;;;;1.00;0.50;;;;;;;24.75;47.36;101538.81;5073017;28;20437;-71
2022/07/05 11:22:33;;;;;;;1.67;0.90;;;;;;;24.75;46.40;101544.38;5073254;28;20525;-71
2022/07/05 11:25:01;;;;;;;1.20;1.00;;;;;;;24.70;46.84;101539.13;5072959;28;20473;-71
2022/07/05 11:27:28;;;;;;;1.47;0.83;;;;;;;24.96;44.56;101535.53;5073094;28;20874;-71
2022/07/05 11:29:57;;;;;;;1.30;0.90;;;;;;;25.29;46.47;101537.56;5073023;28;20528;-71
2022/07/05 11:32:35;;;;;;;1.50;0.87;;;;;;;25.81;43.95;101530.22;5073217;28;20447;-71